sensor_id;sensor_type;location;lat;lon;timestamp;pressure;altitude;pressure_sealevel;temperature;humidity
9538;BME280;4807;48.024;11.726;2022-07-23T00:02:48;95011.25;;;22.65;84.61
9538;BME280;4807;48.024;11.726;2022-07-23T00:05:56;95001.31;;;22.55;87.28
9538;BME280;4807;48.024;11.726;2022-07-23T00:09:05;95000.63;;;22.47;87.76
9538;BME280;4807;48.024;11.726;2022-07-23T00:12:14;94994.84;;;22.45;88.20
9538;BME280;4807;48.024;11.726;2022-07-23T00:15:23;94974.66;;;22.16;89.76
9538;BME280;4807;48.024;11.726;2022-07-23T00:18:31;94969.91;;;22.27;88.16
9538;BME280;4807;48.024;11.726;2022-07-23T00:21:40;94979.69;;;22.17;90.70
9538;BME280;4807;48.024;11.726;2022-07-23T00:24:48;94985.94;;;22.07;90.39
9538;BME280;4807;48.024;11.726;2022-07-23T00:28:18;95003.03;;;21.93;90.37
9538;BME280;4807;48.024;11.726;2022-07-23T00:31:27;95001.94;;;21.87;88.87
9538;BME280;4807;48.024;11.726;2022-07-23T00:34:35;95005.84;;;21.79;88.29
9538;BME280;4807;48.024;11.726;2022-07-23T00:37:44;95005.88;;;21.76;87.64
9538;BME280;4807;48.024;11.726;2022-07-23T00:40:53;94998.91;;;21.75;86.35
9538;BME280;4807;48.024;11.726;2022-07-23T00:44:21;95005.81;;;21.83;85.13
9538;BME280;4807;48.024;11.726;2022-07-23T00:47:29;95008.50;;;21.83;84.47
9538;BME280;4807;48.024;11.726;2022-07-23T00:50:38;95006.25;;;21.78;84.85
9538;BME280;4807;48.024;11.726;2022-07-23T00:53:46;94996.56;;;21.80;84.77
9538;BME280;4807;48.024;11.726;2022-07-23T00:56:57;95009.28;;;21.87;84.02
9538;BME280;4807;48.024;11.726;2022-07-23T01:00:10;95011.22;;;21.86;84.26
9538;BME280;4807;48.024;11.726;2022-07-23T01:03:19;95018.88;;;21.91;84.21
9538;BME280;4807;48.024;11.726;2022-07-23T01:06:30;95014.53;;;22.05;84.55
9538;BME280;4807;48.024;11.726;2022-07-23T01:09:42;95025.41;;;21.97;84.36
9538;BME280;4807;48.024;11.726;2022-07-23T01:12:51;95045.53;;;21.93;84.40
9538;BME280;4807;48.024;11.726;2022-07-23T01:16:00;95076.03;;;21.93;84.59
9538;BME280;4807;48.024;11.726;2022-07-23T01:19:10;95093.34;;;22.03;84.60
9538;BME280;4807;48.024;11.726;2022-07-23T01:22:20;95106.50;;;22.01;84.33
9538;BME280;4807;48.024;11.726;2022-07-23T01:25:30;95140.41;;;22.16;83.92
9538;BME280;4807;48.024;11.726;2022-07-23T01:28:41;95154.44;;;22.49;82.48
9538;BME280;4807;48.024;11.726;2022-07-23T01:31:50;95155.16;;;22.56;82.04
9538;BME280;4807;48.024;11.726;2022-07-23T01:34:58;95165.88;;;22.67;79.65
9538;BME280;4807;48.024;11.726;2022-07-23T01:38:07;95166.38;;;22.55;76.57
9538;BME280;4807;48.024;11.726;2022-07-23T01:41:20;95147.84;;;22.50;72.50
9538;BME280;4807;48.024;11.726;2022-07-23T01:44:28;95168.22;;;22.17;71.86
9538;BME280;4807;48.024;11.726;2022-07-23T01:47:37;95140.84;;;22.04;66.80
9538;BME280;4807;48.024;11.726;2022-07-23T01:50:46;95156.25;;;22.11;64.36
9538;BME280;4807;48.024;11.726;2022-07-23T01:54:05;95135.88;;;22.03;63.98
9538;BME280;4807;48.024;11.726;2022-07-23T01:57:15;95142.09;;;21.85;66.52
9538;BME280;4807;48.024;11.726;2022-07-23T02:00:24;95153.81;;;21.61;69.50
9538;BME280;4807;48.024;11.726;2022-07-23T02:03:33;95157.34;;;21.44;71.24
9538;BME280;4807;48.024;11.726;2022-07-23T02:06:42;95161.69;;;21.27;73.50
9538;BME280;4807;48.024;11.726;2022-07-23T02:09:50;95147.00;;;21.14;75.13
9538;BME280;4807;48.024;11.726;2022-07-23T02:13:00;95156.31;;;21.02;76.38
9538;BME280;4807;48.024;11.726;2022-07-23T02:16:09;95157.09;;;21.03;76.22
9538;BME280;4807;48.024;11.726;2022-07-23T02:19:17;95167.09;;;21.02;76.59
9538;BME280;4807;48.024;11.726;2022-07-23T02:22:26;95160.91;;;21.05;76.30
9538;BME280;4807;48.024;11.726;2022-07-23T02:25:34;95150.13;;;21.09;76.21
9538;BME280;4807;48.024;11.726;2022-07-23T02:28:44;95129.69;;;21.11;76.43
9538;BME280;4807;48.024;11.726;2022-07-23T02:31:52;95135.09;;;21.11;76.84
9538;BME280;4807;48.024;11.726;2022-07-23T02:35:03;95128.13;;;21.21;76.24
9538;BME280;4807;48.024;11.726;2022-07-23T02:38:12;95148.94;;;21.20;77.13
9538;BME280;4807;48.024;11.726;2022-07-23T02:41:20;95160.53;;;21.10;78.50
9538;BME280;4807;48.024;11.726;2022-07-23T02:44:30;95176.00;;;20.96;80.33
9538;BME280;4807;48.024;11.726;2022-07-23T02:47:41;95184.47;;;21.01;80.79
9538;BME280;4807;48.024;11.726;2022-07-23T02:50:50;95184.09;;;20.89;80.72
9538;BME280;4807;48.024;11.726;2022-07-23T02:54:05;95184.88;;;20.82;80.68
9538;BME280;4807;48.024;11.726;2022-07-23T02:57:15;95184.91;;;20.75;81.05
9538;BME280;4807;48.024;11.726;2022-07-23T03:00:25;95199.91;;;20.72;81.15
9538;BME280;4807;48.024;11.726;2022-07-23T03:03:36;95206.84;;;20.77;80.73
9538;BME280;4807;48.024;11.726;2022-07-23T03:06:46;95201.44;;;20.84;80.20
9538;BME280;4807;48.024;11.726;2022-07-23T03:09:54;95216.09;;;20.83;79.71
9538;BME280;4807;48.024;11.726;2022-07-23T03:13:02;95197.22;;;20.97;77.83
9538;BME280;4807;48.024;11.726;2022-07-23T03:16:13;95201.44;;;21.02;78.03
9538;BME280;4807;48.024;11.726;2022-07-23T03:19:22;95199.91;;;20.97;80.69
9538;BME280;4807;48.024;11.726;2022-07-23T03:22:31;95198.38;;;20.82;81.69
9538;BME280;4807;48.024;11.726;2022-07-23T03:25:39;95208.38;;;20.78;83.11
9538;BME280;4807;48.024;11.726;2022-07-23T03:28:48;95216.88;;;20.76;82.54
9538;BME280;4807;48.024;11.726;2022-07-23T03:31:57;95209.94;;;20.79;82.54
9538;BME280;4807;48.024;11.726;2022-07-23T03:35:07;95197.59;;;20.64;82.62
9538;BME280;4807;48.024;11.726;2022-07-23T03:38:21;95187.56;;;20.46;84.01
9538;BME280;4807;48.024;11.726;2022-07-23T03:41:30;95186.81;;;20.46;84.60
9538;BME280;4807;48.024;11.726;2022-07-23T03:44:38;95191.44;;;20.45;83.96
9538;BME280;4807;48.024;11.726;2022-07-23T03:47:48;95182.97;;;20.51;83.12
9538;BME280;4807;48.024;11.726;2022-07-23T03:50:57;95166.38;;;20.56;82.27
9538;BME280;4807;48.024;11.726;2022-07-23T03:54:05;95124.78;;;20.67;80.86
9538;BME280;4807;48.024;11.726;2022-07-23T03:57:13;95103.91;;;20.85;79.88
9538;BME280;4807;48.024;11.726;2022-07-23T04:00:22;95080.00;;;20.84;79.51
9538;BME280;4807;48.024;11.726;2022-07-23T04:03:33;95049.53;;;20.91;80.30
9538;BME280;4807;48.024;11.726;2022-07-23T04:06:41;95011.72;;;20.91;80.37
9538;BME280;4807;48.024;11.726;2022-07-23T04:09:49;94987.81;;;20.93;81.30
9538;BME280;4807;48.024;11.726;2022-07-23T04:12:58;95007.50;;;20.93;81.31
9538;BME280;4807;48.024;11.726;2022-07-23T04:16:07;95037.59;;;20.84;80.59
9538;BME280;4807;48.024;11.726;2022-07-23T04:19:17;95047.25;;;20.82;81.13
9538;BME280;4807;48.024;11.726;2022-07-23T04:22:39;95050.69;;;20.93;79.54
9538;BME280;4807;48.024;11.726;2022-07-23T04:25:48;95064.16;;;20.97;79.91
9538;BME280;4807;48.024;11.726;2022-07-23T04:28:57;95069.97;;;20.84;81.21
9538;BME280;4807;48.024;11.726;2022-07-23T04:32:06;95069.63;;;20.75;81.59
9538;BME280;4807;48.024;11.726;2022-07-23T04:35:16;95063.44;;;20.78;81.40
9538;BME280;4807;48.024;11.726;2022-07-23T04:38:25;95075.34;;;20.95;82.31
9538;BME280;4807;48.024;11.726;2022-07-23T04:41:39;95079.63;;;20.89;82.55
9538;BME280;4807;48.024;11.726;2022-07-23T04:44:50;95066.13;;;20.89;82.17
9538;BME280;4807;48.024;11.726;2022-07-23T04:47:58;95073.03;;;20.94;82.90
9538;BME280;4807;48.024;11.726;2022-07-23T04:51:10;95089.22;;;21.04;81.35
9538;BME280;4807;48.024;11.726;2022-07-23T04:54:19;95073.78;;;21.01;81.70
9538;BME280;4807;48.024;11.726;2022-07-23T04:57:27;95074.13;;;21.07;82.17
9538;BME280;4807;48.024;11.726;2022-07-23T05:00:35;95076.44;;;21.19;81.01
9538;BME280;4807;48.024;11.726;2022-07-23T05:03:44;95063.28;;;21.28;81.82
9538;BME280;4807;48.024;11.726;2022-07-23T05:06:54;95062.81;;;21.44;81.33
9538;BME280;4807;48.024;11.726;2022-07-23T05:10:04;95057.34;;;21.54;78.59
9538;BME280;4807;48.024;11.726;2022-07-23T05:13:15;95057.75;;;21.56;79.47
9538;BME280;4807;48.024;11.726;2022-07-23T05:16:23;95053.06;;;21.64;79.51
9538;BME280;4807;48.024;11.726;2022-07-23T05:19:36;95046.03;;;21.74;80.08
9538;BME280;4807;48.024;11.726;2022-07-23T05:22:46;95043.25;;;21.84;78.77
9538;BME280;4807;48.024;11.726;2022-07-23T05:25:55;95037.81;;;21.91;79.37
9538;BME280;4807;48.024;11.726;2022-07-23T05:29:08;95051.75;;;21.83;80.79
9538;BME280;4807;48.024;11.726;2022-07-23T05:32:17;95059.47;;;21.84;82.18
9538;BME280;4807;48.024;11.726;2022-07-23T05:35:34;95068.47;;;21.71;82.27
9538;BME280;4807;48.024;11.726;2022-07-23T05:39:02;95060.06;;;21.54;81.74
9538;BME280;4807;48.024;11.726;2022-07-23T05:42:14;95060.09;;;21.44;82.28
9538;BME280;4807;48.024;11.726;2022-07-23T05:45:23;95061.56;;;21.62;82.17
9538;BME280;4807;48.024;11.726;2022-07-23T05:48:34;95075.38;;;21.75;82.32
9538;BME280;4807;48.024;11.726;2022-07-23T05:51:48;95075.31;;;21.82;83.24
9538;BME280;4807;48.024;11.726;2022-07-23T05:55:09;95080.75;;;21.79;81.90
9538;BME280;4807;48.024;11.726;2022-07-23T05:58:22;95081.06;;;21.88;81.93
9538;BME280;4807;48.024;11.726;2022-07-23T06:01:33;95077.81;;;22.14;81.38
9538;BME280;4807;48.024;11.726;2022-07-23T06:04:47;95071.06;;;22.36;79.92
9538;BME280;4807;48.024;11.726;2022-07-23T06:08:04;95079.50;;;22.42;80.70
9538;BME280;4807;48.024;11.726;2022-07-23T06:11:14;95101.53;;;22.40;81.21
9538;BME280;4807;48.024;11.726;2022-07-23T06:14:22;95109.44;;;22.24;80.43
9538;BME280;4807;48.024;11.726;2022-07-23T06:17:34;95119.94;;;22.12;81.14
9538;BME280;4807;48.024;11.726;2022-07-23T06:20:44;95128.56;;;21.89;80.79
9538;BME280;4807;48.024;11.726;2022-07-23T06:23:56;95122.81;;;21.83;82.33
9538;BME280;4807;48.024;11.726;2022-07-23T06:27:10;95124.06;;;21.68;83.23
9538;BME280;4807;48.024;11.726;2022-07-23T06:30:19;95110.94;;;21.70;83.41
9538;BME280;4807;48.024;11.726;2022-07-23T06:33:27;95107.03;;;21.75;83.53
9538;BME280;4807;48.024;11.726;2022-07-23T06:36:36;95105.38;;;21.88;83.03
9538;BME280;4807;48.024;11.726;2022-07-23T06:39:45;95101.13;;;21.97;82.44
9538;BME280;4807;48.024;11.726;2022-07-23T06:42:55;95124.69;;;21.97;84.44
9538;BME280;4807;48.024;11.726;2022-07-23T06:46:06;95145.63;;;21.79;86.48
9538;BME280;4807;48.024;11.726;2022-07-23T06:49:15;95125.16;;;21.78;87.02
9538;BME280;4807;48.024;11.726;2022-07-23T06:52:23;95120.53;;;21.75;86.90
9538;BME280;4807;48.024;11.726;2022-07-23T06:55:32;95130.91;;;21.83;86.75
9538;BME280;4807;48.024;11.726;2022-07-23T06:58:46;95127.88;;;21.74;87.72
9538;BME280;4807;48.024;11.726;2022-07-23T07:01:55;95122.47;;;21.74;87.30
9538;BME280;4807;48.024;11.726;2022-07-23T07:05:06;95117.28;;;22.08;85.98
9538;BME280;4807;48.024;11.726;2022-07-23T07:08:15;95112.34;;;21.92;84.50
9538;BME280;4807;48.024;11.726;2022-07-23T07:11:23;95117.94;;;22.19;84.21
9538;BME280;4807;48.024;11.726;2022-07-23T07:14:36;95115.19;;;22.26;83.66
9538;BME280;4807;48.024;11.726;2022-07-23T07:17:44;95120.25;;;22.69;82.95
9538;BME280;4807;48.024;11.726;2022-07-23T07:20:53;95115.63;;;22.66;82.57
9538;BME280;4807;48.024;11.726;2022-07-23T07:24:04;95113.13;;;22.86;82.06
9538;BME280;4807;48.024;11.726;2022-07-23T07:27:13;95100.25;;;23.00;80.84
9538;BME280;4807;48.024;11.726;2022-07-23T07:30:23;95102.19;;;23.00;80.71
9538;BME280;4807;48.024;11.726;2022-07-23T07:33:38;95107.00;;;22.82;81.61
9538;BME280;4807;48.024;11.726;2022-07-23T07:36:47;95117.09;;;23.15;80.73
9538;BME280;4807;48.024;11.726;2022-07-23T07:39:56;95125.97;;;23.53;79.69
9538;BME280;4807;48.024;11.726;2022-07-23T07:43:05;95138.25;;;23.27;79.27
9538;BME280;4807;48.024;11.726;2022-07-23T07:46:15;95141.44;;;23.19;79.02
9538;BME280;4807;48.024;11.726;2022-07-23T07:49:24;95139.28;;;23.37;79.08
9538;BME280;4807;48.024;11.726;2022-07-23T07:52:39;95166.56;;;23.19;79.57
9538;BME280;4807;48.024;11.726;2022-07-23T07:55:48;95151.19;;;23.09;80.42
9538;BME280;4807;48.024;11.726;2022-07-23T07:58:57;95159.63;;;23.18;80.03
9538;BME280;4807;48.024;11.726;2022-07-23T08:02:09;95166.06;;;22.94;80.38
9538;BME280;4807;48.024;11.726;2022-07-23T08:05:20;95165.31;;;23.27;79.66
9538;BME280;4807;48.024;11.726;2022-07-23T08:08:34;95163.53;;;23.13;79.29
9538;BME280;4807;48.024;11.726;2022-07-23T08:11:42;95160.28;;;23.29;79.83
9538;BME280;4807;48.024;11.726;2022-07-23T08:14:50;95153.75;;;23.23;78.14
9538;BME280;4807;48.024;11.726;2022-07-23T08:18:01;95160.53;;;22.60;80.33
9538;BME280;4807;48.024;11.726;2022-07-23T08:21:10;95163.25;;;22.60;81.79
9538;BME280;4807;48.024;11.726;2022-07-23T08:24:18;95166.75;;;23.01;79.92
9538;BME280;4807;48.024;11.726;2022-07-23T08:27:26;95165.16;;;23.41;78.29
9538;BME280;4807;48.024;11.726;2022-07-23T08:30:37;95154.38;;;23.38;77.34
9538;BME280;4807;48.024;11.726;2022-07-23T08:33:47;95170.13;;;23.80;75.45
9538;BME280;4807;48.024;11.726;2022-07-23T08:36:55;95169.25;;;23.90;74.77
9538;BME280;4807;48.024;11.726;2022-07-23T08:40:05;95178.84;;;23.95;74.29
9538;BME280;4807;48.024;11.726;2022-07-23T08:43:18;95183.00;;;24.03;74.44
9538;BME280;4807;48.024;11.726;2022-07-23T08:46:27;95185.50;;;23.90;74.62
9538;BME280;4807;48.024;11.726;2022-07-23T08:49:38;95183.25;;;24.43;74.38
9538;BME280;4807;48.024;11.726;2022-07-23T08:52:49;95190.69;;;24.85;72.08
9538;BME280;4807;48.024;11.726;2022-07-23T08:56:03;95182.94;;;25.11;69.83
9538;BME280;4807;48.024;11.726;2022-07-23T08:59:12;95187.91;;;24.89;69.54
9538;BME280;4807;48.024;11.726;2022-07-23T09:02:21;95186.41;;;24.64;69.99
9538;BME280;4807;48.024;11.726;2022-07-23T09:05:32;95194.25;;;24.32;71.39
9538;BME280;4807;48.024;11.726;2022-07-23T09:08:42;95199.06;;;23.90;72.78
9538;BME280;4807;48.024;11.726;2022-07-23T09:12:03;95201.59;;;24.05;73.20
9538;BME280;4807;48.024;11.726;2022-07-23T09:15:12;95206.53;;;23.83;72.87
9538;BME280;4807;48.024;11.726;2022-07-23T09:18:32;95208.28;;;23.66;73.96
9538;BME280;4807;48.024;11.726;2022-07-23T09:21:42;95209.41;;;23.99;73.96
9538;BME280;4807;48.024;11.726;2022-07-23T09:25:06;95219.38;;;24.36;72.57
9538;BME280;4807;48.024;11.726;2022-07-23T09:28:16;95223.41;;;24.28;72.55
9538;BME280;4807;48.024;11.726;2022-07-23T09:31:31;95217.09;;;24.04;72.80
9538;BME280;4807;48.024;11.726;2022-07-23T09:34:40;95209.25;;;24.40;72.65
9538;BME280;4807;48.024;11.726;2022-07-23T09:38:02;95209.75;;;24.58;72.68
9538;BME280;4807;48.024;11.726;2022-07-23T09:41:11;95204.69;;;24.60;71.00
9538;BME280;4807;48.024;11.726;2022-07-23T09:44:21;95200.78;;;25.31;70.89
9538;BME280;4807;48.024;11.726;2022-07-23T09:47:35;95207.94;;;25.65;69.25
9538;BME280;4807;48.024;11.726;2022-07-23T09:50:44;95213.22;;;25.72;67.22
9538;BME280;4807;48.024;11.726;2022-07-23T09:53:54;95221.63;;;26.17;66.23
9538;BME280;4807;48.024;11.726;2022-07-23T09:57:05;95209.19;;;26.36;66.14
9538;BME280;4807;48.024;11.726;2022-07-23T10:00:16;95209.13;;;27.65;63.41
9538;BME280;4807;48.024;11.726;2022-07-23T10:03:25;95203.63;;;27.94;61.34
9538;BME280;4807;48.024;11.726;2022-07-23T10:06:55;95185.19;;;27.28;59.79
9538;BME280;4807;48.024;11.726;2022-07-23T10:10:26;95186.66;;;27.45;62.71
9538;BME280;4807;48.024;11.726;2022-07-23T10:14:04;95201.34;;;27.06;63.81
9538;BME280;4807;48.024;11.726;2022-07-23T10:17:32;95203.25;;;26.41;61.70
9538;BME280;4807;48.024;11.726;2022-07-23T10:20:41;95194.34;;;26.73;63.29
9538;BME280;4807;48.024;11.726;2022-07-23T10:24:08;95181.88;;;27.78;61.34
9538;BME280;4807;48.024;11.726;2022-07-23T10:27:43;95172.41;;;28.08;59.39
9538;BME280;4807;48.024;11.726;2022-07-23T10:31:05;95170.31;;;27.87;56.86
9538;BME280;4807;48.024;11.726;2022-07-23T10:34:46;95160.25;;;27.84;56.30
9538;BME280;4807;48.024;11.726;2022-07-23T10:38:10;95170.56;;;28.05;59.03
9538;BME280;4807;48.024;11.726;2022-07-23T10:41:32;95168.72;;;28.27;58.62
9538;BME280;4807;48.024;11.726;2022-07-23T10:44:44;95173.41;;;28.90;57.67
9538;BME280;4807;48.024;11.726;2022-07-23T10:47:53;95165.75;;;28.72;55.09
9538;BME280;4807;48.024;11.726;2022-07-23T10:51:12;95172.44;;;28.59;55.79
9538;BME280;4807;48.024;11.726;2022-07-23T10:54:22;95178.91;;;28.39;57.24
9538;BME280;4807;48.024;11.726;2022-07-23T10:57:30;95182.84;;;28.38;58.31
9538;BME280;4807;48.024;11.726;2022-07-23T11:00:40;95176.53;;;27.87;58.39
9538;BME280;4807;48.024;11.726;2022-07-23T11:03:56;95180.34;;;27.77;60.49
9538;BME280;4807;48.024;11.726;2022-07-23T11:07:07;95176.84;;;27.77;60.18
9538;BME280;4807;48.024;11.726;2022-07-23T11:10:33;95176.06;;;28.30;57.85
9538;BME280;4807;48.024;11.726;2022-07-23T11:13:49;95183.25;;;28.49;58.71
9538;BME280;4807;48.024;11.726;2022-07-23T11:16:59;95167.81;;;27.92;57.40
9538;BME280;4807;48.024;11.726;2022-07-23T11:20:17;95173.53;;;27.56;58.83
9538;BME280;4807;48.024;11.726;2022-07-23T11:24:00;95173.78;;;26.84;59.06
9538;BME280;4807;48.024;11.726;2022-07-23T11:27:11;95167.84;;;26.57;60.87
9538;BME280;4807;48.024;11.726;2022-07-23T11:30:39;95169.56;;;26.67;62.75
9538;BME280;4807;48.024;11.726;2022-07-23T11:34:29;95162.34;;;26.25;61.85
9538;BME280;4807;48.024;11.726;2022-07-23T11:37:40;95170.00;;;26.13;62.26
9538;BME280;4807;48.024;11.726;2022-07-23T11:40:50;95168.53;;;26.09;62.28
9538;BME280;4807;48.024;11.726;2022-07-23T11:43:59;95171.56;;;25.95;62.46
9538;BME280;4807;48.024;11.726;2022-07-23T11:47:10;95172.72;;;25.77;62.95
9538;BME280;4807;48.024;11.726;2022-07-23T11:50:24;95171.91;;;25.61;64.51
9538;BME280;4807;48.024;11.726;2022-07-23T11:53:34;95167.91;;;25.65;65.85
9538;BME280;4807;48.024;11.726;2022-07-23T11:56:55;95172.03;;;25.73;65.22
9538;BME280;4807;48.024;11.726;2022-07-23T12:00:08;95177.25;;;26.20;65.02
9538;BME280;4807;48.024;11.726;2022-07-23T12:03:18;95173.09;;;26.15;64.74
9538;BME280;4807;48.024;11.726;2022-07-23T12:06:28;95166.13;;;26.47;63.61
9538;BME280;4807;48.024;11.726;2022-07-23T12:09:37;95170.84;;;26.30;63.31
9538;BME280;4807;48.024;11.726;2022-07-23T12:12:50;95172.81;;;26.46;64.13
9538;BME280;4807;48.024;11.726;2022-07-23T12:15:59;95170.41;;;26.64;62.47
9538;BME280;4807;48.024;11.726;2022-07-23T12:19:08;95163.59;;;26.40;62.54
9538;BME280;4807;48.024;11.726;2022-07-23T12:22:18;95161.97;;;25.90;63.92
9538;BME280;4807;48.024;11.726;2022-07-23T12:25:28;95167.09;;;25.68;64.01
9538;BME280;4807;48.024;11.726;2022-07-23T12:28:37;95166.72;;;25.86;64.03
9538;BME280;4807;48.024;11.726;2022-07-23T12:31:47;95162.81;;;25.48;65.00
9538;BME280;4807;48.024;11.726;2022-07-23T12:35:10;95168.16;;;25.51;65.27
9538;BME280;4807;48.024;11.726;2022-07-23T12:38:23;95163.28;;;25.42;64.24
9538;BME280;4807;48.024;11.726;2022-07-23T12:41:51;95166.63;;;25.30;66.54
9538;BME280;4807;48.024;11.726;2022-07-23T12:46:12;95151.66;;;25.42;65.61
9538;BME280;4807;48.024;11.726;2022-07-23T12:51:03;95166.22;;;25.91;63.54
9538;BME280;4807;48.024;11.726;2022-07-23T12:55:56;95167.44;;;25.70;64.75
9538;BME280;4807;48.024;11.726;2022-07-23T12:59:26;95165.41;;;25.55;63.46
9538;BME280;4807;48.024;11.726;2022-07-23T13:02:46;95169.19;;;25.61;64.60
9538;BME280;4807;48.024;11.726;2022-07-23T13:05:56;95168.69;;;25.86;61.84
9538;BME280;4807;48.024;11.726;2022-07-23T13:09:08;95174.50;;;26.04;61.47
9538;BME280;4807;48.024;11.726;2022-07-23T13:12:19;95171.19;;;26.12;60.95
9538;BME280;4807;48.024;11.726;2022-07-23T13:15:28;95167.69;;;26.48;60.27
9538;BME280;4807;48.024;11.726;2022-07-23T13:18:37;95176.88;;;26.54;60.74
9538;BME280;4807;48.024;11.726;2022-07-23T13:21:46;95180.34;;;26.54;60.76
9538;BME280;4807;48.024;11.726;2022-07-23T13:24:55;95161.28;;;26.71;60.22
9538;BME280;4807;48.024;11.726;2022-07-23T13:28:05;95163.41;;;26.79;60.38
9538;BME280;4807;48.024;11.726;2022-07-23T13:31:16;95167.25;;;26.82;60.55
9538;BME280;4807;48.024;11.726;2022-07-23T13:34:25;95172.13;;;26.74;61.60
9538;BME280;4807;48.024;11.726;2022-07-23T13:37:33;95170.41;;;26.96;60.41
9538;BME280;4807;48.024;11.726;2022-07-23T13:40:46;95172.72;;;26.49;60.37
9538;BME280;4807;48.024;11.726;2022-07-23T13:43:58;95167.44;;;26.42;62.22
9538;BME280;4807;48.024;11.726;2022-07-23T13:47:09;95177.59;;;26.22;62.39
9538;BME280;4807;48.024;11.726;2022-07-23T13:50:19;95166.34;;;26.20;63.26
9538;BME280;4807;48.024;11.726;2022-07-23T13:53:28;95168.13;;;26.10;65.17
9538;BME280;4807;48.024;11.726;2022-07-23T13:56:37;95156.78;;;25.96;64.83
9538;BME280;4807;48.024;11.726;2022-07-23T13:59:47;95160.66;;;25.59;66.26
9538;BME280;4807;48.024;11.726;2022-07-23T14:02:57;95163.09;;;25.33;67.29
9538;BME280;4807;48.024;11.726;2022-07-23T14:06:06;95159.22;;;25.11;67.83
9538;BME280;4807;48.024;11.726;2022-07-23T14:09:24;95158.91;;;25.29;68.27
9538;BME280;4807;48.024;11.726;2022-07-23T14:12:33;95164.72;;;25.08;69.22
9538;BME280;4807;48.024;11.726;2022-07-23T14:15:44;95161.19;;;24.87;69.97
9538;BME280;4807;48.024;11.726;2022-07-23T14:18:53;95151.09;;;24.64;70.48
9538;BME280;4807;48.024;11.726;2022-07-23T14:22:02;95145.66;;;24.64;71.84
9538;BME280;4807;48.024;11.726;2022-07-23T14:25:12;95149.03;;;23.95;76.83
9538;BME280;4807;48.024;11.726;2022-07-23T14:28:21;95155.44;;;24.35;79.50
9538;BME280;4807;48.024;11.726;2022-07-23T14:31:31;95157.63;;;24.20;82.71
9538;BME280;4807;48.024;11.726;2022-07-23T14:34:46;95159.38;;;24.04;80.78
9538;BME280;4807;48.024;11.726;2022-07-23T14:38:00;95153.72;;;23.91;82.28
9538;BME280;4807;48.024;11.726;2022-07-23T14:41:13;95159.31;;;23.77;81.48
9538;BME280;4807;48.024;11.726;2022-07-23T14:44:23;95151.63;;;23.75;80.22
9538;BME280;4807;48.024;11.726;2022-07-23T14:47:33;95149.13;;;23.88;79.99
9538;BME280;4807;48.024;11.726;2022-07-23T14:50:42;95144.00;;;23.67;80.32
9538;BME280;4807;48.024;11.726;2022-07-23T14:53:50;95133.00;;;24.04;79.21
9538;BME280;4807;48.024;11.726;2022-07-23T14:57:00;95135.78;;;23.70;79.81
9538;BME280;4807;48.024;11.726;2022-07-23T15:00:11;95131.13;;;24.51;77.36
9538;BME280;4807;48.024;11.726;2022-07-23T15:03:24;95137.94;;;25.69;73.25
9538;BME280;4807;48.024;11.726;2022-07-23T15:06:48;95122.69;;;26.43;69.92
9538;BME280;4807;48.024;11.726;2022-07-23T15:09:57;95125.06;;;26.41;68.54
9538;BME280;4807;48.024;11.726;2022-07-23T15:13:06;95116.69;;;26.81;68.08
9538;BME280;4807;48.024;11.726;2022-07-23T15:16:14;95124.16;;;26.77;66.78
9538;BME280;4807;48.024;11.726;2022-07-23T15:19:25;95127.09;;;26.37;66.95
9538;BME280;4807;48.024;11.726;2022-07-23T15:22:36;95132.97;;;26.52;66.20
9538;BME280;4807;48.024;11.726;2022-07-23T15:25:45;95129.72;;;26.57;66.88
9538;BME280;4807;48.024;11.726;2022-07-23T15:28:57;95127.34;;;26.43;67.27
9538;BME280;4807;48.024;11.726;2022-07-23T15:32:10;95122.75;;;26.72;67.02
9538;BME280;4807;48.024;11.726;2022-07-23T15:35:21;95127.25;;;26.46;68.05
9538;BME280;4807;48.024;11.726;2022-07-23T15:38:31;95138.59;;;26.61;66.88
9538;BME280;4807;48.024;11.726;2022-07-23T15:41:39;95132.09;;;26.71;67.05
9538;BME280;4807;48.024;11.726;2022-07-23T15:44:49;95129.38;;;26.71;66.48
9538;BME280;4807;48.024;11.726;2022-07-23T15:47:59;95130.06;;;26.43;66.44
9538;BME280;4807;48.024;11.726;2022-07-23T15:51:11;95135.75;;;26.32;68.22
9538;BME280;4807;48.024;11.726;2022-07-23T15:54:19;95132.28;;;26.48;67.15
9538;BME280;4807;48.024;11.726;2022-07-23T15:57:28;95134.00;;;26.42;67.36
9538;BME280;4807;48.024;11.726;2022-07-23T16:00:36;95136.53;;;26.49;67.03
9538;BME280;4807;48.024;11.726;2022-07-23T16:03:45;95135.75;;;26.16;67.72
9538;BME280;4807;48.024;11.726;2022-07-23T16:06:56;95134.75;;;26.26;67.75
9538;BME280;4807;48.024;11.726;2022-07-23T16:10:07;95129.91;;;26.66;67.36
9538;BME280;4807;48.024;11.726;2022-07-23T16:13:17;95131.59;;;26.76;66.39
9538;BME280;4807;48.024;11.726;2022-07-23T16:16:26;95124.81;;;26.52;67.23
9538;BME280;4807;48.024;11.726;2022-07-23T16:19:35;95124.03;;;26.51;67.25
9538;BME280;4807;48.024;11.726;2022-07-23T16:22:44;95115.69;;;26.58;68.39
9538;BME280;4807;48.024;11.726;2022-07-23T16:25:53;95126.03;;;26.80;67.43
9538;BME280;4807;48.024;11.726;2022-07-23T16:29:02;95139.69;;;26.64;67.57
9538;BME280;4807;48.024;11.726;2022-07-23T16:32:11;95136.97;;;26.64;66.42
9538;BME280;4807;48.024;11.726;2022-07-23T16:35:19;95140.97;;;26.75;65.39
9538;BME280;4807;48.024;11.726;2022-07-23T16:38:33;95141.56;;;26.67;65.60
9538;BME280;4807;48.024;11.726;2022-07-23T16:41:42;95139.84;;;26.73;66.66
9538;BME280;4807;48.024;11.726;2022-07-23T16:44:50;95141.66;;;26.31;67.22
9538;BME280;4807;48.024;11.726;2022-07-23T16:47:59;95144.03;;;26.29;67.60
9538;BME280;4807;48.024;11.726;2022-07-23T16:51:08;95142.16;;;26.42;67.50
9538;BME280;4807;48.024;11.726;2022-07-23T16:54:18;95143.19;;;28.34;62.65
9538;BME280;4807;48.024;11.726;2022-07-23T16:57:28;95137.22;;;29.86;57.16
9538;BME280;4807;48.024;11.726;2022-07-23T17:00:36;95136.63;;;32.50;51.36
9538;BME280;4807;48.024;11.726;2022-07-23T17:03:46;95144.13;;;33.45;49.32
9538;BME280;4807;48.024;11.726;2022-07-23T17:06:54;95140.81;;;33.70;49.14
9538;BME280;4807;48.024;11.726;2022-07-23T17:10:09;95132.91;;;34.86;46.99
9538;BME280;4807;48.024;11.726;2022-07-23T17:13:18;95140.16;;;34.83;46.09